createdAt,value
2019-04-03T00:01:14.780Z,10.30
2019-04-03T00:03:43.285Z,10.17
2019-04-03T00:06:11.840Z,10.70
2019-04-03T00:08:40.280Z,10.37
2019-04-03T00:11:09.549Z,10.70
2019-04-03T00:13:38.225Z,10.20
2019-04-03T00:16:08.308Z,9.80
2019-04-03T00:18:36.761Z,10.43
2019-04-03T00:21:05.224Z,10.27
2019-04-03T00:23:33.666Z,10.33
2019-04-03T00:26:02.125Z,10.30
2019-04-03T00:28:30.575Z,10.57
2019-04-03T00:30:59.025Z,9.87
2019-04-03T00:33:27.459Z,10.47
2019-04-03T00:35:55.930Z,10.33
2019-04-03T00:38:24.732Z,10.60
2019-04-03T00:40:54.302Z,9.93
2019-04-03T00:43:24.766Z,10.57
2019-04-03T00:45:54.661Z,9.90
2019-04-03T00:48:23.685Z,10.33
2019-04-03T00:50:56.174Z,10.13
2019-04-03T00:53:24.069Z,10.43
2019-04-03T00:55:52.614Z,10.50
2019-04-03T00:58:36.130Z,10.60
2019-04-03T01:01:06.736Z,10.73
2019-04-03T01:03:35.177Z,10.77
2019-04-03T01:06:03.768Z,10.53
2019-04-03T01:08:32.214Z,10.90
2019-04-03T01:11:00.967Z,10.73
2019-04-03T01:13:31.005Z,10.17
2019-04-03T01:16:02.073Z,10.93
2019-04-03T01:18:30.087Z,11.03
2019-04-03T01:20:58.718Z,10.00
2019-04-03T01:23:27.188Z,10.33
2019-04-03T01:25:55.646Z,10.10
2019-04-03T01:28:24.102Z,9.27
2019-04-03T01:30:52.558Z,9.30
2019-04-03T01:33:21.137Z,10.73
2019-04-03T01:35:49.655Z,10.60
2019-04-03T01:38:19.550Z,9.50
2019-04-03T01:40:50.216Z,10.10
2019-04-03T01:43:18.553Z,10.77
2019-04-03T01:45:47.068Z,10.73
2019-04-03T01:48:15.577Z,10.27
2019-04-03T01:50:44.182Z,10.73
2019-04-03T01:53:12.656Z,10.63
2019-04-03T01:55:41.101Z,10.57
2019-04-03T01:58:09.566Z,10.20
2019-04-03T02:00:38.218Z,10.70
2019-04-03T02:03:08.188Z,10.90
2019-04-03T02:05:36.915Z,10.67
2019-04-03T02:08:05.374Z,10.97
2019-04-03T02:10:33.815Z,10.50
2019-04-03T02:13:02.290Z,10.17
2019-04-03T02:15:30.774Z,10.53
2019-04-03T02:17:59.235Z,10.27
2019-04-03T02:20:27.674Z,11.60
2019-04-03T02:22:56.140Z,11.00
2019-04-03T02:25:24.591Z,9.97
2019-04-03T02:27:53.046Z,10.60
2019-04-03T02:30:21.503Z,10.97
2019-04-03T02:32:50.016Z,10.57
2019-04-03T02:35:18.476Z,10.73
2019-04-03T02:37:49.796Z,10.67
2019-04-03T02:40:17.149Z,10.30
2019-04-03T02:42:45.609Z,11.07
2019-04-03T02:45:14.488Z,10.83
2019-04-03T02:47:43.260Z,10.60
2019-04-03T02:50:14.317Z,10.93
2019-04-03T02:52:42.182Z,11.33
2019-04-03T02:55:10.709Z,10.80
2019-04-03T02:57:39.197Z,10.87
2019-04-03T03:00:08.891Z,11.20
2019-04-03T03:02:37.330Z,10.90
2019-04-03T03:05:06.465Z,11.37
2019-04-03T03:07:36.359Z,10.93
2019-04-03T03:10:07.187Z,10.70
2019-04-03T03:12:37.379Z,10.43
2019-04-03T03:15:10.697Z,11.50
2019-04-03T03:17:38.461Z,11.50
2019-04-03T03:20:08.096Z,11.23
2019-04-03T03:22:38.033Z,11.43
2019-04-03T03:25:07.526Z,11.97
2019-04-03T03:27:40.212Z,11.73
2019-04-03T03:30:30.341Z,11.03
2019-04-03T03:32:38.720Z,11.70
2019-04-03T03:35:14.381Z,11.63
2019-04-03T03:37:38.896Z,11.77
2019-04-03T03:40:08.192Z,11.10
2019-04-03T03:42:37.025Z,11.77
2019-04-03T03:45:06.469Z,12.10
2019-04-03T03:47:37.066Z,11.00
2019-04-03T03:50:07.298Z,11.00
2019-04-03T03:52:38.216Z,11.73
2019-04-03T03:55:08.371Z,11.87
2019-04-03T03:57:40.263Z,12.20
2019-04-03T04:00:10.148Z,12.27
2019-04-03T04:02:43.088Z,14.87
2019-04-03T04:05:11.433Z,15.37
2019-04-03T04:07:39.206Z,12.83
2019-04-03T04:10:07.874Z,12.07
2019-04-03T04:12:39.722Z,12.40
2019-04-03T04:15:06.750Z,12.40
2019-04-03T04:17:35.880Z,12.40
2019-04-03T04:20:07.471Z,12.40
2019-04-03T04:22:37.321Z,11.97
2019-04-03T04:25:06.618Z,12.37
2019-04-03T04:27:37.906Z,12.27
2019-04-03T04:30:06.563Z,12.67
2019-04-03T04:32:35.011Z,12.23
2019-04-03T04:35:04.474Z,13.37
2019-04-03T04:37:32.908Z,11.87
2019-04-03T04:40:01.445Z,11.87
2019-04-03T04:42:30.017Z,13.27
2019-04-03T04:44:58.534Z,13.07
2019-04-03T04:47:26.965Z,14.20
2019-04-03T04:49:55.414Z,13.00
2019-04-03T04:52:23.856Z,14.13
2019-04-03T04:54:52.303Z,12.63
2019-04-03T04:57:20.786Z,12.57
2019-04-03T04:59:49.257Z,12.77
2019-04-03T05:02:17.848Z,12.53
2019-04-03T05:04:47.874Z,12.50
2019-04-03T05:07:16.982Z,12.83
2019-04-03T05:09:45.867Z,13.97
2019-04-03T05:12:14.326Z,13.07
2019-04-03T05:14:42.835Z,12.93
2019-04-03T05:17:11.320Z,12.73
2019-04-03T05:19:39.813Z,13.47
2019-04-03T05:22:08.277Z,13.47
2019-04-03T05:24:36.774Z,14.47
2019-04-03T05:27:07.440Z,13.73
2019-04-03T05:29:35.479Z,12.93
2019-04-03T05:32:04.211Z,14.30
2019-04-03T05:34:32.731Z,12.90
2019-04-03T05:37:01.183Z,14.20
2019-04-03T05:39:29.698Z,14.40
2019-04-03T05:41:59.513Z,13.50
2019-04-03T05:44:28.629Z,14.07
2019-04-03T05:46:59.335Z,14.17
2019-04-03T05:49:27.379Z,13.47
2019-04-03T05:51:55.898Z,13.40
2019-04-03T05:54:24.507Z,13.30
2019-04-03T05:56:53.180Z,14.30
2019-04-03T05:59:21.706Z,14.40
2019-04-03T06:01:50.154Z,14.37
2019-04-03T06:04:18.618Z,14.17
2019-04-03T06:06:47.464Z,13.07
2019-04-03T06:09:16.000Z,13.83
2019-04-03T06:11:44.474Z,14.37
2019-04-03T06:14:12.919Z,13.80
2019-04-03T06:16:41.383Z,13.57
2019-04-03T06:19:09.817Z,15.33
2019-04-03T06:21:38.324Z,14.20
2019-04-03T06:24:06.765Z,14.40
2019-04-03T06:26:37.151Z,15.97
2019-04-03T06:29:07.309Z,14.27
2019-04-03T06:31:35.648Z,15.07
2019-04-03T06:34:06.673Z,15.60
2019-04-03T06:36:34.346Z,13.73
2019-04-03T06:39:03.781Z,14.47
2019-04-03T06:41:32.332Z,15.17
2019-04-03T06:44:00.810Z,15.70
2019-04-03T06:46:29.922Z,15.23
2019-04-03T06:48:58.824Z,14.40
2019-04-03T06:51:27.265Z,14.40
2019-04-03T06:53:55.861Z,15.07
2019-04-03T06:56:25.757Z,14.80
2019-04-03T06:58:54.217Z,15.47
2019-04-03T07:01:22.741Z,14.43
2019-04-03T07:03:51.340Z,14.03
2019-04-03T07:06:19.826Z,15.17
2019-04-03T07:08:48.302Z,15.50
2019-04-03T07:11:23.205Z,15.07
2019-04-03T07:13:46.949Z,16.00
2019-04-03T07:16:15.454Z,15.20
2019-04-03T07:18:43.931Z,15.70
2019-04-03T07:21:12.381Z,16.07
2019-04-03T07:23:40.853Z,15.93
2019-04-03T07:26:09.302Z,15.00
2019-04-03T07:28:40.585Z,16.03
2019-04-03T07:31:08.175Z,16.37
2019-04-03T07:33:36.625Z,16.17
2019-04-03T07:36:05.146Z,15.97
2019-04-03T07:38:33.621Z,16.27
2019-04-03T07:41:02.069Z,16.87
2019-04-03T07:43:30.539Z,15.70
2019-04-03T07:45:59.057Z,16.10
2019-04-03T07:48:27.518Z,17.00
2019-04-03T07:50:56.213Z,16.23
2019-04-03T07:53:24.739Z,15.57
2019-04-03T07:55:55.107Z,15.83
2019-04-03T07:58:25.140Z,14.83
2019-04-03T08:00:53.530Z,15.73
2019-04-03T08:03:22.085Z,15.80
2019-04-03T08:05:50.602Z,15.27
2019-04-03T08:08:19.066Z,14.80
2019-04-03T08:10:47.501Z,14.67
2019-04-03T08:13:16.179Z,14.93
2019-04-03T08:15:45.437Z,15.97
2019-04-03T08:18:14.005Z,14.30
2019-04-03T08:20:42.459Z,15.30
2019-04-03T08:23:10.919Z,14.57
2019-04-03T08:25:42.200Z,14.23
2019-04-03T08:28:09.690Z,14.90
2019-04-03T08:30:39.645Z,14.00
2019-04-03T08:33:15.995Z,13.67
2019-04-03T08:35:38.508Z,14.33
2019-04-03T08:38:07.086Z,13.67
2019-04-03T08:40:35.584Z,13.90
2019-04-03T08:43:04.437Z,14.00
2019-04-03T08:45:33.027Z,14.03
2019-04-03T08:48:01.688Z,14.17
2019-04-03T08:50:30.206Z,14.27
2019-04-03T08:52:58.873Z,13.87
2019-04-03T08:55:27.589Z,13.40
2019-04-03T08:57:56.285Z,13.57
2019-04-03T09:00:24.942Z,13.60
2019-04-03T09:02:53.543Z,14.80
2019-04-03T09:05:22.104Z,13.80
2019-04-03T09:07:50.854Z,13.33
2019-04-03T09:10:20.313Z,13.80
2019-04-03T09:12:49.034Z,14.23
2019-04-03T09:15:17.938Z,13.13
2019-04-03T09:17:46.381Z,13.13
2019-04-03T09:20:15.297Z,13.43
2019-04-03T09:22:43.825Z,13.47
2019-04-03T09:25:13.741Z,13.50
2019-04-03T09:27:42.342Z,14.50
2019-04-03T09:30:16.064Z,13.67
2019-04-03T09:32:44.239Z,13.63
2019-04-03T09:35:13.555Z,13.43
2019-04-03T09:37:42.103Z,13.83
2019-04-03T09:40:11.003Z,13.33
2019-04-03T09:42:39.459Z,14.43
2019-04-03T09:45:09.388Z,13.90
2019-04-03T09:47:37.957Z,13.87
2019-04-03T09:50:07.891Z,13.53
2019-04-03T09:52:41.466Z,13.30
2019-04-03T09:55:07.286Z,13.93
2019-04-03T09:57:35.769Z,14.10
2019-04-03T10:00:09.598Z,13.83
2019-04-03T10:02:37.315Z,13.43
2019-04-03T10:05:07.446Z,13.73
2019-04-03T10:07:36.994Z,13.20
2019-04-03T10:10:09.074Z,13.60
2019-04-03T10:12:38.010Z,12.43
2019-04-03T10:15:07.541Z,13.03
2019-04-03T10:17:37.442Z,14.57
2019-04-03T10:20:08.372Z,13.00
2019-04-03T10:22:36.818Z,12.87
2019-04-03T10:25:08.810Z,11.93
2019-04-03T10:27:37.263Z,12.57
2019-04-03T10:30:08.024Z,12.83
2019-04-03T10:32:36.805Z,12.77
2019-04-03T10:35:07.715Z,13.30
2019-04-03T10:37:36.647Z,12.63
2019-04-03T10:40:07.594Z,12.97
2019-04-03T10:42:36.102Z,12.80
2019-04-03T10:45:08.132Z,12.80
2019-04-03T10:47:42.025Z,12.67
2019-04-03T10:50:07.617Z,13.07
2019-04-03T10:52:36.070Z,12.87
2019-04-03T10:55:09.355Z,13.20
2019-04-03T10:57:37.806Z,13.67
2019-04-03T11:00:08.026Z,12.60
2019-04-03T11:02:36.610Z,12.77
2019-04-03T11:05:07.747Z,11.73
2019-04-03T11:07:36.235Z,11.97
2019-04-03T11:10:07.014Z,12.43
2019-04-03T11:12:35.502Z,12.17
2019-04-03T11:15:06.968Z,12.30
2019-04-03T11:17:35.471Z,12.83
2019-04-03T11:20:08.812Z,11.87
2019-04-03T11:22:41.084Z,12.37
2019-04-03T11:25:08.037Z,13.17
2019-04-03T11:27:45.056Z,12.30
2019-04-03T11:30:11.911Z,12.53
2019-04-03T11:32:41.254Z,12.60
2019-04-03T11:35:10.579Z,12.07
2019-04-03T11:37:39.337Z,12.50
2019-04-03T11:40:10.518Z,12.50
2019-04-03T11:42:39.064Z,11.83
2019-04-03T11:45:08.237Z,11.87
2019-04-03T11:47:37.068Z,11.87
2019-04-03T11:50:07.958Z,11.17
2019-04-03T11:52:36.511Z,12.23
2019-04-03T11:55:09.986Z,13.00
2019-04-03T11:57:37.377Z,13.83
2019-04-03T12:00:12.077Z,14.50
2019-04-03T12:02:43.715Z,14.67
2019-04-03T12:05:10.970Z,15.23
2019-04-03T12:07:39.489Z,14.00
2019-04-03T12:10:08.619Z,13.93
2019-04-03T12:12:37.115Z,13.63
2019-04-03T12:15:08.739Z,14.63
2019-04-03T12:17:37.416Z,14.63
2019-04-03T12:20:09.253Z,14.97
2019-04-03T12:22:37.489Z,13.77
2019-04-03T12:25:07.447Z,14.63
2019-04-03T12:27:36.662Z,14.33
2019-04-03T12:30:08.317Z,14.43
2019-04-03T12:32:41.394Z,14.37
2019-04-03T12:35:09.820Z,14.60
2019-04-03T12:37:38.186Z,14.20
2019-04-03T12:40:07.596Z,15.73
2019-04-03T12:42:36.136Z,13.87
2019-04-03T12:45:07.461Z,14.17
2019-04-03T12:47:36.139Z,14.47
2019-04-03T12:50:08.549Z,14.60
2019-04-03T12:52:37.111Z,14.13
2019-04-03T12:55:07.256Z,15.73
2019-04-03T12:57:38.864Z,14.30
2019-04-03T13:00:10.616Z,14.77
2019-04-03T13:02:39.057Z,14.07
2019-04-03T13:05:08.114Z,14.23
2019-04-03T13:07:37.394Z,13.57
2019-04-03T13:10:08.453Z,13.80
2019-04-03T13:12:37.084Z,13.57
2019-04-03T13:15:08.739Z,13.33
2019-04-03T13:17:37.437Z,13.87
2019-04-03T13:20:08.502Z,13.83
2019-04-03T13:22:37.768Z,14.37
2019-04-03T13:25:08.602Z,14.60
2019-04-03T13:27:37.587Z,15.03
2019-04-03T13:30:11.933Z,15.30
2019-04-03T13:32:39.671Z,14.30
2019-04-03T13:35:08.439Z,15.13
2019-04-03T13:37:37.601Z,15.63
2019-04-03T13:40:07.448Z,14.53
2019-04-03T13:42:36.506Z,13.93
2019-04-03T13:45:07.581Z,13.50
2019-04-03T13:47:36.124Z,14.00
2019-04-03T13:50:07.429Z,13.87
2019-04-03T13:52:41.421Z,14.40
2019-04-03T13:55:08.084Z,13.93
2019-04-03T13:57:36.553Z,13.70
2019-04-03T14:00:18.713Z,14.40
2019-04-03T14:02:38.874Z,13.77
2019-04-03T14:05:08.851Z,13.50
2019-04-03T14:07:40.381Z,13.70
2019-04-03T14:10:09.775Z,13.30
2019-04-03T14:12:42.994Z,13.20
2019-04-03T14:15:08.970Z,12.60
2019-04-03T14:17:37.473Z,13.50
2019-04-03T14:20:07.555Z,13.07
2019-04-03T14:22:36.106Z,13.73
2019-04-03T14:25:18.122Z,13.83
2019-04-03T14:27:37.330Z,13.20
2019-04-03T14:30:11.607Z,13.20
2019-04-03T14:32:38.638Z,12.60
2019-04-03T14:35:36.640Z,13.57
2019-04-03T14:37:37.913Z,13.70
2019-04-03T14:40:11.125Z,14.40
2019-04-03T14:42:38.586Z,14.07
2019-04-03T14:45:09.050Z,13.33
2019-04-03T14:47:37.609Z,12.77
2019-04-03T14:50:07.380Z,14.27
2019-04-03T14:52:36.333Z,12.80
2019-04-03T14:55:17.084Z,13.93
2019-04-03T14:57:37.219Z,14.03
2019-04-03T15:00:22.984Z,12.97
2019-04-03T15:02:40.437Z,13.37
2019-04-03T15:05:10.175Z,13.90
2019-04-03T15:07:38.665Z,13.50
2019-04-03T15:10:07.925Z,14.27
2019-04-03T15:12:39.945Z,14.13
2019-04-03T15:15:07.892Z,12.87
2019-04-03T15:17:37.687Z,13.30
2019-04-03T15:20:11.207Z,13.63
2019-04-03T15:22:39.654Z,13.20
2019-04-03T15:25:08.946Z,14.07
2019-04-03T15:27:37.389Z,14.30
2019-04-03T15:30:09.966Z,13.87
2019-04-03T15:32:37.682Z,13.47
2019-04-03T15:35:06.586Z,13.17
2019-04-03T15:37:35.040Z,13.40
2019-04-03T15:40:04.955Z,14.17
2019-04-03T15:42:33.532Z,14.63
2019-04-03T15:45:02.346Z,13.53
2019-04-03T15:47:37.579Z,13.47
2019-04-03T15:50:01.129Z,13.47
2019-04-03T15:52:29.765Z,13.83
2019-04-03T15:54:58.473Z,14.07
2019-04-03T15:57:26.958Z,13.73
2019-04-03T15:59:55.427Z,13.90
2019-04-03T16:02:23.901Z,13.60
2019-04-03T16:04:52.704Z,12.93
2019-04-03T16:07:21.586Z,12.60
2019-04-03T16:09:51.340Z,12.80
2019-04-03T16:12:20.087Z,12.77
2019-04-03T16:14:50.795Z,12.27
2019-04-03T16:17:18.935Z,12.43
2019-04-03T16:19:47.517Z,13.13
2019-04-03T16:22:16.228Z,11.97
2019-04-03T16:24:45.165Z,12.20
2019-04-03T16:27:13.919Z,11.47
2019-04-03T16:29:42.591Z,12.20
2019-04-03T16:32:11.542Z,11.80
2019-04-03T16:34:41.735Z,10.97
2019-04-03T16:37:10.610Z,10.93
2019-04-03T16:39:39.231Z,11.37
2019-04-03T16:42:07.764Z,11.20
2019-04-03T16:44:36.637Z,10.90
2019-04-03T16:47:05.150Z,11.30
2019-04-03T16:49:33.637Z,12.10
2019-04-03T16:52:04.395Z,10.93
2019-04-03T16:54:33.596Z,11.07
2019-04-03T16:57:03.598Z,10.57
2019-04-03T16:59:35.451Z,11.27
2019-04-03T17:02:02.393Z,11.70
2019-04-03T17:04:31.100Z,11.53
2019-04-03T17:06:59.730Z,11.73
2019-04-03T17:09:28.214Z,11.60
2019-04-03T17:11:56.659Z,10.57
2019-04-03T17:14:25.704Z,10.67
2019-04-03T17:16:54.203Z,11.33
2019-04-03T17:19:22.722Z,11.30
2019-04-03T17:21:51.466Z,11.47
2019-04-03T17:24:20.073Z,11.77
2019-04-03T17:26:53.910Z,11.53
2019-04-03T17:29:19.628Z,12.07
2019-04-03T17:31:48.377Z,11.67
2019-04-03T17:34:17.000Z,11.27
2019-04-03T17:36:45.791Z,11.47
2019-04-03T17:39:14.561Z,11.77
2019-04-03T17:41:43.055Z,11.53
2019-04-03T17:44:11.996Z,13.47
2019-04-03T17:46:41.862Z,11.43
2019-04-03T17:49:10.301Z,11.03
2019-04-03T17:51:38.771Z,12.30
2019-04-03T17:54:07.726Z,11.80
2019-04-03T17:56:36.790Z,11.27
2019-04-03T17:59:05.231Z,17.83
2019-04-03T18:01:33.723Z,11.97
2019-04-03T18:04:02.227Z,12.10
2019-04-03T18:06:30.730Z,11.80
2019-04-03T18:08:59.236Z,12.40
2019-04-03T18:11:27.716Z,11.80
2019-04-03T18:13:56.231Z,11.83
2019-04-03T18:16:24.696Z,11.87
2019-04-03T18:18:53.142Z,11.93
2019-04-03T18:21:21.596Z,11.03
2019-04-03T18:23:52.546Z,12.10
2019-04-03T18:26:20.293Z,12.03
2019-04-03T18:28:48.769Z,12.47
2019-04-03T18:31:17.206Z,12.33
2019-04-03T18:33:46.831Z,12.23
2019-04-03T18:36:15.834Z,11.97
2019-04-03T18:38:44.312Z,12.43
2019-04-03T18:41:12.754Z,12.60
2019-04-03T18:43:41.230Z,12.63
2019-04-03T18:46:09.739Z,12.03
2019-04-03T18:48:38.241Z,12.27
2019-04-03T18:51:06.792Z,12.30
2019-04-03T18:53:35.340Z,11.50
2019-04-03T18:56:04.150Z,12.87
2019-04-03T18:58:32.615Z,11.63
2019-04-03T19:01:01.758Z,11.87
2019-04-03T19:03:30.817Z,12.40
2019-04-03T19:05:59.961Z,12.43
2019-04-03T19:08:28.649Z,12.10
2019-04-03T19:11:02.220Z,12.37
2019-04-03T19:13:27.342Z,12.00
2019-04-03T19:15:55.802Z,12.67
2019-04-03T19:18:24.266Z,13.20
2019-04-03T19:20:52.845Z,13.60
2019-04-03T19:23:21.311Z,11.83
2019-04-03T19:25:49.747Z,12.67
2019-04-03T19:28:18.226Z,12.50
2019-04-03T19:30:46.681Z,13.30
2019-04-03T19:33:15.158Z,13.43
2019-04-03T19:35:43.604Z,12.97
2019-04-03T19:38:13.395Z,13.73
2019-04-03T19:40:41.923Z,12.67
2019-04-03T19:43:10.380Z,12.97
2019-04-03T19:45:38.836Z,13.13
2019-04-03T19:48:07.307Z,14.23
2019-04-03T19:50:35.810Z,13.17
2019-04-03T19:53:04.277Z,13.10
2019-04-03T19:55:32.741Z,21.07
2019-04-03T19:58:01.223Z,13.23
2019-04-03T20:00:29.748Z,13.30
2019-04-03T20:02:58.299Z,14.40
2019-04-03T20:05:26.742Z,13.83
2019-04-03T20:07:58.637Z,13.93
2019-04-03T20:10:25.478Z,14.73
2019-04-03T20:12:54.001Z,14.43
2019-04-03T20:15:22.820Z,14.50
2019-04-03T20:17:54.537Z,14.93
2019-04-03T20:20:22.008Z,14.33
2019-04-03T20:22:50.466Z,14.70
2019-04-03T20:25:18.933Z,14.27
2019-04-03T20:27:51.194Z,14.23
2019-04-03T20:30:17.712Z,14.23
2019-04-03T20:32:46.206Z,15.13
2019-04-03T20:35:17.879Z,15.30
2019-04-03T20:37:44.933Z,14.83
2019-04-03T20:40:13.449Z,14.63
2019-04-03T20:42:41.919Z,14.80
2019-04-03T20:45:10.499Z,14.30
2019-04-03T20:47:38.973Z,14.63
2019-04-03T20:50:07.831Z,14.40
2019-04-03T20:52:36.480Z,13.93
2019-04-03T20:55:06.583Z,14.63
2019-04-03T20:57:35.101Z,14.43
2019-04-03T21:00:08.447Z,14.60
2019-04-03T21:02:36.969Z,14.77
2019-04-03T21:05:07.696Z,14.27
2019-04-03T21:07:36.342Z,13.97
2019-04-03T21:10:07.222Z,13.77
2019-04-03T21:12:36.325Z,14.73
2019-04-03T21:15:08.700Z,15.20
2019-04-03T21:17:36.496Z,14.00
2019-04-03T21:20:06.673Z,13.70
2019-04-03T21:22:35.192Z,14.33
2019-04-03T21:25:05.320Z,14.87
2019-04-03T21:27:34.609Z,13.07
2019-04-03T21:30:03.397Z,13.03
2019-04-03T21:32:31.839Z,13.60
2019-04-03T21:35:03.081Z,14.37
2019-04-03T21:37:30.481Z,13.70
2019-04-03T21:40:02.076Z,13.43
2019-04-03T21:42:29.147Z,13.00
2019-04-03T21:44:57.598Z,14.10
2019-04-03T21:47:26.050Z,13.83
2019-04-03T21:49:54.518Z,13.60
2019-04-03T21:52:23.333Z,14.23
2019-04-03T21:54:51.924Z,13.93
2019-04-03T21:57:20.362Z,13.50
2019-04-03T21:59:48.829Z,13.20
2019-04-03T22:02:17.354Z,13.37
2019-04-03T22:04:45.814Z,12.97
2019-04-03T22:07:14.271Z,13.20
2019-04-03T22:09:42.733Z,13.23
2019-04-03T22:12:11.185Z,13.87
2019-04-03T22:14:40.981Z,13.13
2019-04-03T22:17:09.878Z,13.07
2019-04-03T22:19:38.345Z,13.63
2019-04-03T22:22:06.856Z,13.00
2019-04-03T22:24:37.540Z,13.57
2019-04-03T22:27:05.488Z,13.67
2019-04-03T22:29:33.969Z,12.97
2019-04-03T22:32:02.416Z,13.20
2019-04-03T22:34:30.944Z,13.07
2019-04-03T22:36:59.386Z,12.53
2019-04-03T22:39:27.869Z,12.63
2019-04-03T22:41:56.308Z,14.00
2019-04-03T22:44:24.764Z,13.03
2019-04-03T22:46:54.140Z,12.87
2019-04-03T22:49:23.167Z,12.87
2019-04-03T22:51:51.713Z,12.67
2019-04-03T22:54:20.320Z,13.43
2019-04-03T22:56:48.778Z,12.50
2019-04-03T22:59:17.219Z,12.60
2019-04-03T23:01:45.688Z,12.37
2019-04-03T23:04:14.130Z,12.37
2019-04-03T23:06:42.587Z,12.40
2019-04-03T23:09:11.104Z,12.30
2019-04-03T23:11:39.572Z,12.80
2019-04-03T23:14:08.013Z,11.93
2019-04-03T23:16:36.484Z,12.60
2019-04-03T23:19:04.950Z,12.10
2019-04-03T23:21:33.486Z,12.67
2019-04-03T23:24:01.925Z,12.03
2019-04-03T23:26:32.228Z,12.07
2019-04-03T23:29:00.560Z,12.30
2019-04-03T23:31:29.024Z,11.70
2019-04-03T23:33:57.454Z,13.17
2019-04-03T23:36:25.935Z,12.17
2019-04-03T23:38:56.420Z,11.83
2019-04-03T23:41:24.574Z,12.17
2019-04-03T23:43:53.009Z,12.30
2019-04-03T23:46:21.480Z,12.30
2019-04-03T23:48:49.922Z,12.10
2019-04-03T23:51:23.367Z,11.73
2019-04-03T23:53:48.588Z,11.57
2019-04-03T23:56:17.041Z,11.17
2019-04-03T23:58:45.555Z,12.00
